sensor_id;sensor_type;location;lat;lon;timestamp;P1;durP1;ratioP1;P2;durP2;ratioP2
49578;SDS011;35483;50.828;3.228;2024-02-16T00:01:15;3.90;;;3.60;;
49578;SDS011;35483;50.828;3.228;2024-02-16T00:03:41;4.05;;;3.40;;
49578;SDS011;35483;50.828;3.228;2024-02-16T00:06:07;4.47;;;3.70;;
49578;SDS011;35483;50.828;3.228;2024-02-16T00:08:33;4.20;;;3.75;;
49578;SDS011;35483;50.828;3.228;2024-02-16T00:11:00;4.20;;;3.80;;
49578;SDS011;35483;50.828;3.228;2024-02-16T00:13:25;4.60;;;3.88;;
49578;SDS011;35483;50.828;3.228;2024-02-16T00:15:51;3.90;;;3.50;;
49578;SDS011;35483;50.828;3.228;2024-02-16T00:18:17;4.35;;;3.53;;
49578;SDS011;35483;50.828;3.228;2024-02-16T00:20:43;4.45;;;3.65;;
49578;SDS011;35483;50.828;3.228;2024-02-16T00:23:09;4.45;;;3.35;;
49578;SDS011;35483;50.828;3.228;2024-02-16T00:25:35;4.90;;;3.65;;
49578;SDS011;35483;50.828;3.228;2024-02-16T00:28:03;4.00;;;3.60;;
49578;SDS011;35483;50.828;3.228;2024-02-16T00:30:30;4.72;;;3.72;;
49578;SDS011;35483;50.828;3.228;2024-02-16T00:32:56;4.07;;;3.60;;
49578;SDS011;35483;50.828;3.228;2024-02-16T00:35:22;4.32;;;3.60;;
49578;SDS011;35483;50.828;3.228;2024-02-16T00:37:48;3.85;;;3.45;;
49578;SDS011;35483;50.828;3.228;2024-02-16T00:40:15;4.80;;;3.67;;
49578;SDS011;35483;50.828;3.228;2024-02-16T00:42:41;5.13;;;3.70;;
49578;SDS011;35483;50.828;3.228;2024-02-16T00:45:07;4.57;;;3.67;;
49578;SDS011;35483;50.828;3.228;2024-02-16T00:47:33;4.75;;;3.58;;
49578;SDS011;35483;50.828;3.228;2024-02-16T00:49:59;4.13;;;3.72;;
49578;SDS011;35483;50.828;3.228;2024-02-16T00:52:25;3.42;;;3.13;;
49578;SDS011;35483;50.828;3.228;2024-02-16T00:54:51;4.40;;;3.38;;
49578;SDS011;35483;50.828;3.228;2024-02-16T00:57:17;4.47;;;3.50;;
49578;SDS011;35483;50.828;3.228;2024-02-16T00:59:43;5.47;;;4.03;;
49578;SDS011;35483;50.828;3.228;2024-02-16T01:02:09;4.18;;;3.78;;
49578;SDS011;35483;50.828;3.228;2024-02-16T01:04:36;4.10;;;3.75;;
49578;SDS011;35483;50.828;3.228;2024-02-16T01:07:02;5.43;;;3.90;;
49578;SDS011;35483;50.828;3.228;2024-02-16T01:09:28;4.25;;;3.85;;
49578;SDS011;35483;50.828;3.228;2024-02-16T01:11:54;5.15;;;3.80;;
49578;SDS011;35483;50.828;3.228;2024-02-16T01:14:20;4.38;;;3.67;;
49578;SDS011;35483;50.828;3.228;2024-02-16T01:16:46;4.90;;;4.00;;
49578;SDS011;35483;50.828;3.228;2024-02-16T01:19:12;4.40;;;3.97;;
49578;SDS011;35483;50.828;3.228;2024-02-16T01:21:38;4.97;;;4.30;;
49578;SDS011;35483;50.828;3.228;2024-02-16T01:24:07;4.45;;;3.92;;
49578;SDS011;35483;50.828;3.228;2024-02-16T01:26:34;5.68;;;4.40;;
49578;SDS011;35483;50.828;3.228;2024-02-16T01:29:00;4.65;;;4.03;;
49578;SDS011;35483;50.828;3.228;2024-02-16T01:31:27;4.38;;;3.97;;
49578;SDS011;35483;50.828;3.228;2024-02-16T01:33:53;4.63;;;4.10;;
49578;SDS011;35483;50.828;3.228;2024-02-16T01:36:19;5.05;;;4.38;;
49578;SDS011;35483;50.828;3.228;2024-02-16T01:38:45;4.32;;;3.92;;
49578;SDS011;35483;50.828;3.228;2024-02-16T01:41:11;4.40;;;4.00;;
49578;SDS011;35483;50.828;3.228;2024-02-16T01:43:40;5.03;;;4.45;;
49578;SDS011;35483;50.828;3.228;2024-02-16T01:46:06;5.53;;;3.95;;
49578;SDS011;35483;50.828;3.228;2024-02-16T01:48:32;5.57;;;4.50;;
49578;SDS011;35483;50.828;3.228;2024-02-16T01:50:58;5.22;;;4.25;;
49578;SDS011;35483;50.828;3.228;2024-02-16T01:53:26;4.75;;;4.25;;
49578;SDS011;35483;50.828;3.228;2024-02-16T01:55:52;4.88;;;4.00;;
49578;SDS011;35483;50.828;3.228;2024-02-16T01:58:18;4.28;;;3.92;;
49578;SDS011;35483;50.828;3.228;2024-02-16T02:00:46;5.53;;;3.97;;
49578;SDS011;35483;50.828;3.228;2024-02-16T02:03:12;5.60;;;4.13;;
49578;SDS011;35483;50.828;3.228;2024-02-16T02:05:44;4.38;;;3.90;;
49578;SDS011;35483;50.828;3.228;2024-02-16T02:08:11;5.32;;;3.92;;
49578;SDS011;35483;50.828;3.228;2024-02-16T02:10:38;4.10;;;3.70;;
49578;SDS011;35483;50.828;3.228;2024-02-16T02:13:04;4.43;;;4.03;;
49578;SDS011;35483;50.828;3.228;2024-02-16T02:15:30;5.18;;;4.30;;
49578;SDS011;35483;50.828;3.228;2024-02-16T02:17:56;4.97;;;4.10;;
49578;SDS011;35483;50.828;3.228;2024-02-16T02:20:24;3.58;;;3.28;;
49578;SDS011;35483;50.828;3.228;2024-02-16T02:22:50;5.00;;;4.00;;
49578;SDS011;35483;50.828;3.228;2024-02-16T02:25:16;4.40;;;3.97;;
49578;SDS011;35483;50.828;3.228;2024-02-16T02:27:42;4.38;;;3.85;;
49578;SDS011;35483;50.828;3.228;2024-02-16T02:30:08;4.50;;;3.65;;
49578;SDS011;35483;50.828;3.228;2024-02-16T02:32:35;4.05;;;3.55;;
49578;SDS011;35483;50.828;3.228;2024-02-16T02:35:01;4.25;;;3.80;;
49578;SDS011;35483;50.828;3.228;2024-02-16T02:37:29;5.00;;;3.70;;
49578;SDS011;35483;50.828;3.228;2024-02-16T02:39:55;4.07;;;3.67;;
49578;SDS011;35483;50.828;3.228;2024-02-16T02:42:22;4.38;;;3.85;;
49578;SDS011;35483;50.828;3.228;2024-02-16T02:44:48;5.85;;;3.88;;
49578;SDS011;35483;50.828;3.228;2024-02-16T02:47:16;3.83;;;3.42;;
49578;SDS011;35483;50.828;3.228;2024-02-16T02:49:43;4.97;;;4.05;;
49578;SDS011;35483;50.828;3.228;2024-02-16T02:52:09;4.57;;;3.72;;
49578;SDS011;35483;50.828;3.228;2024-02-16T02:54:36;4.57;;;3.63;;
49578;SDS011;35483;50.828;3.228;2024-02-16T02:57:03;4.32;;;3.55;;
49578;SDS011;35483;50.828;3.228;2024-02-16T02:59:30;4.20;;;3.65;;
49578;SDS011;35483;50.828;3.228;2024-02-16T03:01:56;6.78;;;4.30;;
49578;SDS011;35483;50.828;3.228;2024-02-16T03:04:22;4.40;;;4.00;;
49578;SDS011;35483;50.828;3.228;2024-02-16T03:06:48;4.55;;;3.42;;
49578;SDS011;35483;50.828;3.228;2024-02-16T03:09:17;4.38;;;3.88;;
49578;SDS011;35483;50.828;3.228;2024-02-16T03:11:43;4.78;;;3.60;;
49578;SDS011;35483;50.828;3.228;2024-02-16T03:14:09;4.75;;;3.50;;
49578;SDS011;35483;50.828;3.228;2024-02-16T03:16:37;3.50;;;3.20;;
49578;SDS011;35483;50.828;3.228;2024-02-16T03:19:05;4.03;;;3.50;;
49578;SDS011;35483;50.828;3.228;2024-02-16T03:21:35;3.70;;;3.25;;
49578;SDS011;35483;50.828;3.228;2024-02-16T03:24:02;5.32;;;3.95;;
49578;SDS011;35483;50.828;3.228;2024-02-16T03:26:30;4.75;;;3.70;;
49578;SDS011;35483;50.828;3.228;2024-02-16T03:28:58;3.17;;;2.90;;
49578;SDS011;35483;50.828;3.228;2024-02-16T03:31:25;3.63;;;3.08;;
49578;SDS011;35483;50.828;3.228;2024-02-16T03:33:51;5.70;;;3.72;;
49578;SDS011;35483;50.828;3.228;2024-02-16T03:36:18;4.15;;;3.35;;
49578;SDS011;35483;50.828;3.228;2024-02-16T03:38:45;3.50;;;2.97;;
49578;SDS011;35483;50.828;3.228;2024-02-16T03:41:17;3.92;;;3.30;;
49578;SDS011;35483;50.828;3.228;2024-02-16T03:43:44;3.50;;;3.20;;
49578;SDS011;35483;50.828;3.228;2024-02-16T03:46:12;5.40;;;3.38;;
49578;SDS011;35483;50.828;3.228;2024-02-16T03:48:38;3.92;;;3.50;;
49578;SDS011;35483;50.828;3.228;2024-02-16T03:51:07;4.38;;;3.17;;
49578;SDS011;35483;50.828;3.228;2024-02-16T03:53:33;3.25;;;2.95;;
49578;SDS011;35483;50.828;3.228;2024-02-16T03:56:00;3.80;;;3.30;;
49578;SDS011;35483;50.828;3.228;2024-02-16T03:58:26;3.88;;;3.00;;
49578;SDS011;35483;50.828;3.228;2024-02-16T04:00:52;4.30;;;3.20;;
49578;SDS011;35483;50.828;3.228;2024-02-16T04:03:18;3.33;;;2.90;;
49578;SDS011;35483;50.828;3.228;2024-02-16T04:05:45;3.83;;;2.90;;
49578;SDS011;35483;50.828;3.228;2024-02-16T04:08:13;3.75;;;3.13;;
49578;SDS011;35483;50.828;3.228;2024-02-16T04:10:39;4.15;;;3.33;;
49578;SDS011;35483;50.828;3.228;2024-02-16T04:13:05;3.50;;;2.90;;
49578;SDS011;35483;50.828;3.228;2024-02-16T04:15:31;4.97;;;3.70;;
49578;SDS011;35483;50.828;3.228;2024-02-16T04:17:58;4.28;;;3.45;;
49578;SDS011;35483;50.828;3.228;2024-02-16T04:20:25;3.78;;;3.22;;
49578;SDS011;35483;50.828;3.228;2024-02-16T04:25:20;4.05;;;3.65;;
49578;SDS011;35483;50.828;3.228;2024-02-16T04:30:15;5.35;;;3.50;;
49578;SDS011;35483;50.828;3.228;2024-02-16T04:32:42;4.05;;;3.47;;
49578;SDS011;35483;50.828;3.228;2024-02-16T04:35:08;3.55;;;3.25;;
49578;SDS011;35483;50.828;3.228;2024-02-16T04:37:37;4.38;;;3.38;;
49578;SDS011;35483;50.828;3.228;2024-02-16T04:40:05;3.83;;;3.25;;
49578;SDS011;35483;50.828;3.228;2024-02-16T04:42:32;3.67;;;3.03;;
49578;SDS011;35483;50.828;3.228;2024-02-16T04:44:58;4.07;;;3.35;;
49578;SDS011;35483;50.828;3.228;2024-02-16T04:47:25;5.57;;;3.45;;
49578;SDS011;35483;50.828;3.228;2024-02-16T04:49:52;4.60;;;3.60;;
49578;SDS011;35483;50.828;3.228;2024-02-16T04:52:18;4.30;;;3.45;;
49578;SDS011;35483;50.828;3.228;2024-02-16T04:54:44;4.47;;;3.63;;
49578;SDS011;35483;50.828;3.228;2024-02-16T04:57:11;4.00;;;3.65;;
49578;SDS011;35483;50.828;3.228;2024-02-16T05:02:06;3.83;;;3.40;;
49578;SDS011;35483;50.828;3.228;2024-02-16T05:04:34;4.40;;;3.67;;
49578;SDS011;35483;50.828;3.228;2024-02-16T05:07:01;4.22;;;3.85;;
49578;SDS011;35483;50.828;3.228;2024-02-16T05:09:28;5.55;;;3.83;;
49578;SDS011;35483;50.828;3.228;2024-02-16T05:11:54;4.05;;;3.40;;
49578;SDS011;35483;50.828;3.228;2024-02-16T05:14:20;5.65;;;3.67;;
49578;SDS011;35483;50.828;3.228;2024-02-16T05:16:46;5.55;;;3.88;;
49578;SDS011;35483;50.828;3.228;2024-02-16T05:19:15;5.05;;;3.53;;
49578;SDS011;35483;50.828;3.228;2024-02-16T05:21:42;4.65;;;3.22;;
49578;SDS011;35483;50.828;3.228;2024-02-16T05:24:11;5.30;;;3.60;;
49578;SDS011;35483;50.828;3.228;2024-02-16T05:26:38;3.95;;;3.40;;
49578;SDS011;35483;50.828;3.228;2024-02-16T05:29:04;4.80;;;3.53;;
49578;SDS011;35483;50.828;3.228;2024-02-16T05:31:29;5.00;;;3.70;;
49578;SDS011;35483;50.828;3.228;2024-02-16T05:33:57;4.78;;;3.45;;
49578;SDS011;35483;50.828;3.228;2024-02-16T05:36:23;3.50;;;3.20;;
49578;SDS011;35483;50.828;3.228;2024-02-16T05:38:56;4.00;;;3.33;;
49578;SDS011;35483;50.828;3.228;2024-02-16T05:41:34;5.95;;;3.65;;
49578;SDS011;35483;50.828;3.228;2024-02-16T05:44:02;5.55;;;3.13;;
49578;SDS011;35483;50.828;3.228;2024-02-16T05:46:28;4.85;;;3.50;;
49578;SDS011;35483;50.828;3.228;2024-02-16T05:48:56;4.45;;;3.30;;
49578;SDS011;35483;50.828;3.228;2024-02-16T05:51:23;5.47;;;3.30;;
49578;SDS011;35483;50.828;3.228;2024-02-16T05:53:49;3.83;;;3.42;;
49578;SDS011;35483;50.828;3.228;2024-02-16T05:56:17;4.15;;;3.40;;
49578;SDS011;35483;50.828;3.228;2024-02-16T05:58:43;5.97;;;3.50;;
49578;SDS011;35483;50.828;3.228;2024-02-16T06:01:08;3.90;;;3.30;;
49578;SDS011;35483;50.828;3.228;2024-02-16T06:03:43;7.05;;;3.45;;
49578;SDS011;35483;50.828;3.228;2024-02-16T06:06:15;4.70;;;3.63;;
49578;SDS011;35483;50.828;3.228;2024-02-16T06:08:43;4.47;;;3.20;;
49578;SDS011;35483;50.828;3.228;2024-02-16T06:11:10;3.28;;;2.97;;
49578;SDS011;35483;50.828;3.228;2024-02-16T06:13:36;5.25;;;3.63;;
49578;SDS011;35483;50.828;3.228;2024-02-16T06:16:04;4.38;;;3.97;;
49578;SDS011;35483;50.828;3.228;2024-02-16T06:18:33;6.25;;;3.78;;
49578;SDS011;35483;50.828;3.228;2024-02-16T06:20:59;4.30;;;3.50;;
49578;SDS011;35483;50.828;3.228;2024-02-16T06:23:25;6.03;;;3.47;;
49578;SDS011;35483;50.828;3.228;2024-02-16T06:25:51;4.90;;;3.38;;
49578;SDS011;35483;50.828;3.228;2024-02-16T06:28:16;5.90;;;4.20;;
49578;SDS011;35483;50.828;3.228;2024-02-16T06:30:42;5.68;;;3.95;;
49578;SDS011;35483;50.828;3.228;2024-02-16T06:33:09;5.60;;;3.60;;
49578;SDS011;35483;50.828;3.228;2024-02-16T06:38:07;3.53;;;3.10;;
49578;SDS011;35483;50.828;3.228;2024-02-16T06:40:34;5.20;;;3.70;;
49578;SDS011;35483;50.828;3.228;2024-02-16T06:43:03;5.53;;;4.05;;
49578;SDS011;35483;50.828;3.228;2024-02-16T06:45:36;6.75;;;3.88;;
49578;SDS011;35483;50.828;3.228;2024-02-16T06:50:31;5.32;;;3.45;;
49578;SDS011;35483;50.828;3.228;2024-02-16T06:52:57;5.65;;;3.40;;
49578;SDS011;35483;50.828;3.228;2024-02-16T06:55:22;6.53;;;3.45;;
49578;SDS011;35483;50.828;3.228;2024-02-16T06:57:48;5.35;;;3.40;;
49578;SDS011;35483;50.828;3.228;2024-02-16T07:00:15;4.72;;;3.47;;
49578;SDS011;35483;50.828;3.228;2024-02-16T07:02:41;4.68;;;3.75;;
49578;SDS011;35483;50.828;3.228;2024-02-16T07:05:07;3.83;;;3.20;;
49578;SDS011;35483;50.828;3.228;2024-02-16T07:07:33;4.55;;;3.53;;
49578;SDS011;35483;50.828;3.228;2024-02-16T07:10:01;4.82;;;3.65;;
49578;SDS011;35483;50.828;3.228;2024-02-16T07:12:27;4.75;;;3.40;;
49578;SDS011;35483;50.828;3.228;2024-02-16T07:14:53;5.43;;;3.38;;
49578;SDS011;35483;50.828;3.228;2024-02-16T07:17:18;5.25;;;3.25;;
49578;SDS011;35483;50.828;3.228;2024-02-16T07:19:44;6.40;;;3.33;;
49578;SDS011;35483;50.828;3.228;2024-02-16T07:22:10;6.18;;;3.55;;
49578;SDS011;35483;50.828;3.228;2024-02-16T07:24:37;4.88;;;3.33;;
49578;SDS011;35483;50.828;3.228;2024-02-16T07:27:03;6.47;;;3.70;;
49578;SDS011;35483;50.828;3.228;2024-02-16T07:29:29;6.95;;;3.50;;
49578;SDS011;35483;50.828;3.228;2024-02-16T07:31:54;5.85;;;3.47;;
49578;SDS011;35483;50.828;3.228;2024-02-16T07:34:21;6.10;;;3.72;;
49578;SDS011;35483;50.828;3.228;2024-02-16T07:36:47;4.65;;;3.70;;
49578;SDS011;35483;50.828;3.228;2024-02-16T07:39:13;5.40;;;3.47;;
49578;SDS011;35483;50.828;3.228;2024-02-16T07:41:39;5.15;;;3.40;;
49578;SDS011;35483;50.828;3.228;2024-02-16T07:44:04;8.23;;;3.50;;
49578;SDS011;35483;50.828;3.228;2024-02-16T07:46:30;4.50;;;3.75;;
49578;SDS011;35483;50.828;3.228;2024-02-16T07:48:56;4.90;;;3.47;;
49578;SDS011;35483;50.828;3.228;2024-02-16T07:51:22;7.68;;;4.00;;
49578;SDS011;35483;50.828;3.228;2024-02-16T07:53:49;5.60;;;4.00;;
49578;SDS011;35483;50.828;3.228;2024-02-16T07:56:15;5.20;;;4.20;;
49578;SDS011;35483;50.828;3.228;2024-02-16T07:58:41;7.47;;;4.40;;
49578;SDS011;35483;50.828;3.228;2024-02-16T08:01:11;7.43;;;4.22;;
49578;SDS011;35483;50.828;3.228;2024-02-16T08:03:40;11.73;;;4.43;;
49578;SDS011;35483;50.828;3.228;2024-02-16T08:06:06;4.28;;;3.83;;
49578;SDS011;35483;50.828;3.228;2024-02-16T08:08:32;4.28;;;3.78;;
49578;SDS011;35483;50.828;3.228;2024-02-16T08:10:59;6.60;;;3.72;;
49578;SDS011;35483;50.828;3.228;2024-02-16T08:13:24;7.90;;;4.18;;
49578;SDS011;35483;50.828;3.228;2024-02-16T08:15:50;6.35;;;4.10;;
49578;SDS011;35483;50.828;3.228;2024-02-16T08:18:17;6.45;;;4.20;;
49578;SDS011;35483;50.828;3.228;2024-02-16T08:20:43;5.50;;;3.90;;
49578;SDS011;35483;50.828;3.228;2024-02-16T08:23:08;8.90;;;4.72;;
49578;SDS011;35483;50.828;3.228;2024-02-16T08:25:34;6.55;;;3.97;;
49578;SDS011;35483;50.828;3.228;2024-02-16T08:28:00;8.15;;;3.85;;
49578;SDS011;35483;50.828;3.228;2024-02-16T08:30:26;6.43;;;3.83;;
49578;SDS011;35483;50.828;3.228;2024-02-16T08:32:52;7.00;;;4.38;;
49578;SDS011;35483;50.828;3.228;2024-02-16T08:35:19;6.80;;;4.50;;
49578;SDS011;35483;50.828;3.228;2024-02-16T08:37:44;8.88;;;4.72;;
49578;SDS011;35483;50.828;3.228;2024-02-16T08:40:12;8.48;;;4.45;;
49578;SDS011;35483;50.828;3.228;2024-02-16T08:42:41;6.03;;;4.22;;
49578;SDS011;35483;50.828;3.228;2024-02-16T08:45:09;7.90;;;4.80;;
49578;SDS011;35483;50.828;3.228;2024-02-16T08:47:37;6.60;;;4.90;;
49578;SDS011;35483;50.828;3.228;2024-02-16T08:50:04;6.55;;;4.28;;
49578;SDS011;35483;50.828;3.228;2024-02-16T08:52:30;8.68;;;4.82;;
49578;SDS011;35483;50.828;3.228;2024-02-16T08:54:56;6.68;;;5.03;;
49578;SDS011;35483;50.828;3.228;2024-02-16T08:57:22;8.32;;;4.95;;
49578;SDS011;35483;50.828;3.228;2024-02-16T08:59:48;6.72;;;5.15;;
49578;SDS011;35483;50.828;3.228;2024-02-16T09:02:14;10.25;;;5.53;;
49578;SDS011;35483;50.828;3.228;2024-02-16T09:04:40;8.85;;;5.38;;
49578;SDS011;35483;50.828;3.228;2024-02-16T09:07:05;8.27;;;5.50;;
49578;SDS011;35483;50.828;3.228;2024-02-16T09:09:31;7.18;;;5.63;;
49578;SDS011;35483;50.828;3.228;2024-02-16T09:11:58;9.38;;;5.20;;
49578;SDS011;35483;50.828;3.228;2024-02-16T09:14:24;10.90;;;5.68;;
49578;SDS011;35483;50.828;3.228;2024-02-16T09:16:50;8.63;;;5.53;;
49578;SDS011;35483;50.828;3.228;2024-02-16T09:19:18;9.90;;;5.85;;
49578;SDS011;35483;50.828;3.228;2024-02-16T09:21:45;8.77;;;6.60;;
49578;SDS011;35483;50.828;3.228;2024-02-16T09:24:11;7.90;;;5.38;;
49578;SDS011;35483;50.828;3.228;2024-02-16T09:26:42;12.23;;;6.13;;
49578;SDS011;35483;50.828;3.228;2024-02-16T09:29:10;7.30;;;5.65;;
49578;SDS011;35483;50.828;3.228;2024-02-16T09:31:40;8.55;;;6.10;;
49578;SDS011;35483;50.828;3.228;2024-02-16T09:34:06;7.55;;;6.15;;
49578;SDS011;35483;50.828;3.228;2024-02-16T09:36:32;9.25;;;6.32;;
49578;SDS011;35483;50.828;3.228;2024-02-16T09:38:57;9.38;;;6.45;;
49578;SDS011;35483;50.828;3.228;2024-02-16T09:41:23;10.93;;;7.22;;
49578;SDS011;35483;50.828;3.228;2024-02-16T09:43:49;9.25;;;6.22;;
49578;SDS011;35483;50.828;3.228;2024-02-16T09:46:21;10.88;;;7.18;;
49578;SDS011;35483;50.828;3.228;2024-02-16T09:51:17;12.30;;;8.70;;
49578;SDS011;35483;50.828;3.228;2024-02-16T09:53:44;11.75;;;8.25;;
49578;SDS011;35483;50.828;3.228;2024-02-16T09:56:20;12.48;;;8.18;;
49578;SDS011;35483;50.828;3.228;2024-02-16T09:58:46;11.50;;;8.27;;
49578;SDS011;35483;50.828;3.228;2024-02-16T10:01:19;11.80;;;8.23;;
49578;SDS011;35483;50.828;3.228;2024-02-16T10:03:51;9.73;;;7.90;;
49578;SDS011;35483;50.828;3.228;2024-02-16T10:06:17;11.02;;;8.50;;
49578;SDS011;35483;50.828;3.228;2024-02-16T10:08:52;15.50;;;8.30;;
49578;SDS011;35483;50.828;3.228;2024-02-16T10:11:24;10.68;;;8.15;;
49578;SDS011;35483;50.828;3.228;2024-02-16T10:13:57;14.65;;;8.73;;
49578;SDS011;35483;50.828;3.228;2024-02-16T10:16:28;11.05;;;8.40;;
49578;SDS011;35483;50.828;3.228;2024-02-16T10:18:55;12.48;;;9.27;;
49578;SDS011;35483;50.828;3.228;2024-02-16T10:21:25;11.48;;;9.15;;
49578;SDS011;35483;50.828;3.228;2024-02-16T10:26:36;10.65;;;8.43;;
49578;SDS011;35483;50.828;3.228;2024-02-16T10:29:03;10.43;;;8.73;;
49578;SDS011;35483;50.828;3.228;2024-02-16T10:31:36;15.55;;;10.10;;
49578;SDS011;35483;50.828;3.228;2024-02-16T10:34:03;16.98;;;10.77;;
49578;SDS011;35483;50.828;3.228;2024-02-16T10:36:31;16.13;;;12.73;;
49578;SDS011;35483;50.828;3.228;2024-02-16T10:38:58;15.13;;;12.20;;
49578;SDS011;35483;50.828;3.228;2024-02-16T10:41:29;16.27;;;12.98;;
49578;SDS011;35483;50.828;3.228;2024-02-16T10:43:59;16.95;;;13.68;;
49578;SDS011;35483;50.828;3.228;2024-02-16T10:46:26;17.63;;;14.18;;
49578;SDS011;35483;50.828;3.228;2024-02-16T10:48:52;19.92;;;15.48;;
49578;SDS011;35483;50.828;3.228;2024-02-16T10:51:24;20.50;;;14.80;;
49578;SDS011;35483;50.828;3.228;2024-02-16T10:54:10;20.15;;;15.23;;
49578;SDS011;35483;50.828;3.228;2024-02-16T10:56:40;17.30;;;13.02;;
49578;SDS011;35483;50.828;3.228;2024-02-16T10:59:09;18.73;;;13.20;;
49578;SDS011;35483;50.828;3.228;2024-02-16T11:04:06;13.45;;;11.80;;
49578;SDS011;35483;50.828;3.228;2024-02-16T11:06:44;14.48;;;12.88;;
49578;SDS011;35483;50.828;3.228;2024-02-16T11:09:25;12.82;;;10.77;;
49578;SDS011;35483;50.828;3.228;2024-02-16T11:11:55;14.57;;;12.02;;
49578;SDS011;35483;50.828;3.228;2024-02-16T11:14:33;11.57;;;10.38;;
49578;SDS011;35483;50.828;3.228;2024-02-16T11:19:42;8.70;;;7.78;;
49578;SDS011;35483;50.828;3.228;2024-02-16T11:22:09;8.00;;;7.20;;
49578;SDS011;35483;50.828;3.228;2024-02-16T11:24:36;7.85;;;7.00;;
49578;SDS011;35483;50.828;3.228;2024-02-16T11:27:10;5.60;;;5.07;;
49578;SDS011;35483;50.828;3.228;2024-02-16T11:29:38;5.65;;;5.13;;
49578;SDS011;35483;50.828;3.228;2024-02-16T11:32:06;5.18;;;4.68;;
49578;SDS011;35483;50.828;3.228;2024-02-16T11:34:34;4.68;;;3.97;;
49578;SDS011;35483;50.828;3.228;2024-02-16T11:37:03;4.57;;;4.18;;
49578;SDS011;35483;50.828;3.228;2024-02-16T11:39:32;4.40;;;3.90;;
49578;SDS011;35483;50.828;3.228;2024-02-16T11:44:31;3.38;;;3.08;;
49578;SDS011;35483;50.828;3.228;2024-02-16T11:47:00;3.50;;;3.00;;
49578;SDS011;35483;50.828;3.228;2024-02-16T11:49:28;2.95;;;2.65;;
49578;SDS011;35483;50.828;3.228;2024-02-16T11:52:04;2.97;;;2.72;;
49578;SDS011;35483;50.828;3.228;2024-02-16T11:54:30;2.50;;;2.30;;
49578;SDS011;35483;50.828;3.228;2024-02-16T11:56:57;3.60;;;2.78;;
49578;SDS011;35483;50.828;3.228;2024-02-16T12:01:58;3.75;;;3.35;;
49578;SDS011;35483;50.828;3.228;2024-02-16T12:04:25;4.45;;;3.47;;
49578;SDS011;35483;50.828;3.228;2024-02-16T12:06:58;4.10;;;2.97;;
49578;SDS011;35483;50.828;3.228;2024-02-16T12:09:25;3.60;;;2.72;;
49578;SDS011;35483;50.828;3.228;2024-02-16T12:11:52;3.58;;;2.90;;
49578;SDS011;35483;50.828;3.228;2024-02-16T12:14:19;3.60;;;2.95;;
49578;SDS011;35483;50.828;3.228;2024-02-16T12:16:56;3.50;;;2.83;;
49578;SDS011;35483;50.828;3.228;2024-02-16T12:19:22;3.38;;;3.08;;
49578;SDS011;35483;50.828;3.228;2024-02-16T12:21:55;3.88;;;3.58;;
49578;SDS011;35483;50.828;3.228;2024-02-16T12:24:24;4.65;;;3.05;;
49578;SDS011;35483;50.828;3.228;2024-02-16T12:26:50;3.88;;;3.00;;
49578;SDS011;35483;50.828;3.228;2024-02-16T12:29:17;3.30;;;3.00;;
49578;SDS011;35483;50.828;3.228;2024-02-16T12:31:44;3.03;;;2.70;;
49578;SDS011;35483;50.828;3.228;2024-02-16T12:34:13;3.35;;;2.70;;
49578;SDS011;35483;50.828;3.228;2024-02-16T12:36:41;3.20;;;2.90;;
49578;SDS011;35483;50.828;3.228;2024-02-16T12:39:09;3.35;;;3.05;;
49578;SDS011;35483;50.828;3.228;2024-02-16T12:41:40;3.15;;;2.85;;
49578;SDS011;35483;50.828;3.228;2024-02-16T12:44:09;3.33;;;2.85;;
49578;SDS011;35483;50.828;3.228;2024-02-16T12:46:38;5.13;;;3.38;;
49578;SDS011;35483;50.828;3.228;2024-02-16T12:49:04;3.97;;;3.60;;
49578;SDS011;35483;50.828;3.228;2024-02-16T12:51:30;4.10;;;3.70;;
49578;SDS011;35483;50.828;3.228;2024-02-16T12:53:59;3.88;;;3.58;;
49578;SDS011;35483;50.828;3.228;2024-02-16T12:56:30;5.68;;;4.80;;
49578;SDS011;35483;50.828;3.228;2024-02-16T12:58:57;6.63;;;5.68;;
49578;SDS011;35483;50.828;3.228;2024-02-16T13:01:25;7.00;;;6.28;;
49578;SDS011;35483;50.828;3.228;2024-02-16T13:03:51;8.52;;;7.72;;
49578;SDS011;35483;50.828;3.228;2024-02-16T13:06:18;9.13;;;8.23;;
49578;SDS011;35483;50.828;3.228;2024-02-16T13:08:47;8.48;;;7.57;;
49578;SDS011;35483;50.828;3.228;2024-02-16T13:11:13;7.28;;;6.57;;
49578;SDS011;35483;50.828;3.228;2024-02-16T13:13:42;6.70;;;5.75;;
49578;SDS011;35483;50.828;3.228;2024-02-16T13:16:11;5.55;;;5.07;;
49578;SDS011;35483;50.828;3.228;2024-02-16T13:18:40;5.50;;;4.75;;
49578;SDS011;35483;50.828;3.228;2024-02-16T13:21:08;6.05;;;5.40;;
49578;SDS011;35483;50.828;3.228;2024-02-16T13:23:34;5.05;;;4.65;;
49578;SDS011;35483;50.828;3.228;2024-02-16T13:26:00;5.57;;;5.07;;
49578;SDS011;35483;50.828;3.228;2024-02-16T13:28:29;4.97;;;4.32;;
49578;SDS011;35483;50.828;3.228;2024-02-16T13:30:56;4.65;;;3.97;;
49578;SDS011;35483;50.828;3.228;2024-02-16T13:33:25;4.60;;;4.20;;
49578;SDS011;35483;50.828;3.228;2024-02-16T13:35:51;4.05;;;3.75;;
49578;SDS011;35483;50.828;3.228;2024-02-16T13:38:20;4.22;;;3.83;;
49578;SDS011;35483;50.828;3.228;2024-02-16T13:43:15;4.10;;;3.70;;
49578;SDS011;35483;50.828;3.228;2024-02-16T13:48:18;3.22;;;3.00;;
49578;SDS011;35483;50.828;3.228;2024-02-16T13:55:43;3.40;;;3.10;;
49578;SDS011;35483;50.828;3.228;2024-02-16T13:58:10;3.33;;;3.00;;
49578;SDS011;35483;50.828;3.228;2024-02-16T14:03:09;3.28;;;2.97;;
49578;SDS011;35483;50.828;3.228;2024-02-16T14:05:40;3.00;;;2.70;;
49578;SDS011;35483;50.828;3.228;2024-02-16T14:08:10;3.78;;;3.00;;
49578;SDS011;35483;50.828;3.228;2024-02-16T14:10:39;3.17;;;2.72;;
49578;SDS011;35483;50.828;3.228;2024-02-16T14:13:05;3.30;;;3.00;;
49578;SDS011;35483;50.828;3.228;2024-02-16T14:15:31;3.30;;;3.00;;
49578;SDS011;35483;50.828;3.228;2024-02-16T14:17:58;3.25;;;2.95;;
49578;SDS011;35483;50.828;3.228;2024-02-16T14:20:25;4.07;;;2.80;;
49578;SDS011;35483;50.828;3.228;2024-02-16T14:22:51;3.58;;;2.55;;
49578;SDS011;35483;50.828;3.228;2024-02-16T14:25:18;3.22;;;2.63;;
49578;SDS011;35483;50.828;3.228;2024-02-16T14:27:44;2.97;;;2.13;;
49578;SDS011;35483;50.828;3.228;2024-02-16T14:30:16;3.05;;;2.30;;
49578;SDS011;35483;50.828;3.228;2024-02-16T14:32:44;2.70;;;2.33;;
49578;SDS011;35483;50.828;3.228;2024-02-16T14:35:13;2.20;;;2.00;;
49578;SDS011;35483;50.828;3.228;2024-02-16T14:37:40;2.50;;;2.00;;
49578;SDS011;35483;50.828;3.228;2024-02-16T14:45:07;3.03;;;2.10;;
49578;SDS011;35483;50.828;3.228;2024-02-16T14:47:36;2.78;;;2.58;;
49578;SDS011;35483;50.828;3.228;2024-02-16T14:50:02;3.08;;;2.20;;
49578;SDS011;35483;50.828;3.228;2024-02-16T14:52:30;2.38;;;2.17;;
49578;SDS011;35483;50.828;3.228;2024-02-16T14:54:57;3.25;;;2.92;;
49578;SDS011;35483;50.828;3.228;2024-02-16T14:57:22;2.63;;;2.42;;
49578;SDS011;35483;50.828;3.228;2024-02-16T14:59:50;3.45;;;2.80;;
49578;SDS011;35483;50.828;3.228;2024-02-16T15:02:23;3.08;;;2.53;;
49578;SDS011;35483;50.828;3.228;2024-02-16T15:04:49;2.80;;;2.08;;
49578;SDS011;35483;50.828;3.228;2024-02-16T15:07:16;2.55;;;2.05;;
49578;SDS011;35483;50.828;3.228;2024-02-16T15:09:43;2.53;;;2.30;;
49578;SDS011;35483;50.828;3.228;2024-02-16T15:12:10;1.70;;;1.10;;
49578;SDS011;35483;50.828;3.228;2024-02-16T15:14:35;2.28;;;1.52;;
49578;SDS011;35483;50.828;3.228;2024-02-16T15:17:01;1.45;;;1.23;;
49578;SDS011;35483;50.828;3.228;2024-02-16T15:19:29;2.40;;;1.27;;
49578;SDS011;35483;50.828;3.228;2024-02-16T15:21:54;1.88;;;1.48;;
49578;SDS011;35483;50.828;3.228;2024-02-16T15:24:23;1.35;;;1.25;;
49578;SDS011;35483;50.828;3.228;2024-02-16T15:26:50;2.95;;;2.08;;
49578;SDS011;35483;50.828;3.228;2024-02-16T15:29:19;1.70;;;1.55;;
49578;SDS011;35483;50.828;3.228;2024-02-16T15:31:44;3.28;;;2.53;;